Time;durP1;ratioP1;P1;durP2;ratioP2;P2;SDS_P1;SDS_P2;PMS_P1;PMS_P2;Temp;Humidity;BMP_temperature;BMP_pressure;BME280_temperature;BME280_humidity;BME280_pressure;Samples;Min_cycle;Max_cycle;Signal;HPM_P1;HPM_P2
2023/08/15 00:00:48;;;;;;;14.68;11.25;;;;;;;20.55;nan;100847.00;5016091;28;20036;-69
2023/08/15 00:03:13;;;;;;;15.85;10.70;;;;;;;20.56;nan;100853.97;5011227;28;20014;-70
2023/08/15 00:05:38;;;;;;;13.25;10.40;;;;;;;20.51;nan;100854.75;5015941;28;20075;-71
2023/08/15 00:08:04;;;;;;;13.95;10.50;;;;;;;20.46;nan;100846.00;5015036;28;20029;-71
2023/08/15 00:10:29;;;;;;;15.68;10.52;;;;;;;20.51;nan;100864.69;5020065;28;20029;-72
2023/08/15 00:12:54;;;;;;;15.05;10.55;;;;;;;20.49;nan;100856.13;5010748;28;20492;-71
2023/08/15 00:15:20;;;;;;;16.85;10.40;;;;;;;20.38;nan;100844.72;5016635;28;20476;-70
2023/08/15 00:17:45;;;;;;;12.60;10.35;;;;;;;20.43;nan;100868.75;5012583;28;20558;-71
2023/08/15 00:20:11;;;;;;;14.60;11.18;;;;;;;20.38;nan;100858.09;5018367;28;20032;-71
2023/08/15 00:22:36;;;;;;;14.95;10.48;;;;;;;20.18;nan;100830.44;5012363;28;20665;-71
2023/08/15 00:25:02;;;;;;;16.42;11.05;;;;;;;20.36;nan;100865.59;5012240;28;20029;-71
2023/08/15 00:27:28;;;;;;;15.00;11.02;;;;;;;20.10;nan;100825.66;5016845;28;20430;-70
2023/08/15 00:29:53;;;;;;;13.55;10.32;;;;;;;20.29;nan;100863.22;5017171;28;20022;-70
2023/08/15 00:32:18;;;;;;;16.10;11.02;;;;;;;20.24;nan;100854.47;5010259;28;20388;-69
2023/08/15 00:34:44;;;;;;;13.80;10.63;;;;;;;20.24;nan;100860.59;5014374;28;20136;-70
2023/08/15 00:37:09;;;;;;;18.15;10.45;;;;;;;20.20;nan;100859.53;5015053;28;20037;-67
2023/08/15 00:39:35;;;;;;;14.25;10.15;;;;;;;20.18;nan;100867.03;5012382;28;20472;-69
2023/08/15 00:42:00;;;;;;;14.88;9.90;;;;;;;20.18;nan;100859.03;5016947;28;20431;-69
2023/08/15 00:44:26;;;;;;;16.90;9.88;;;;;;;20.10;nan;100856.94;5016524;28;20026;-70
2023/08/15 00:46:51;;;;;;;14.30;10.18;;;;;;;20.03;nan;100849.22;5011777;28;20037;-71
2023/08/15 00:49:18;;;;;;;14.25;10.43;;;;;;;20.04;nan;100852.69;5015407;28;20025;-63
2023/08/15 00:51:44;;;;;;;12.88;10.50;;;;;;;19.98;nan;100849.25;5011160;28;20040;-64
2023/08/15 00:54:10;;;;;;;16.13;9.82;;;;;;;19.97;nan;100848.47;5011137;28;20034;-64
2023/08/15 00:56:35;;;;;;;12.23;9.88;;;;;;;19.96;nan;100854.09;5010866;28;20038;-63
2023/08/15 00:59:01;;;;;;;11.25;9.98;;;;;;;19.89;nan;100848.25;5016009;28;20033;-64
2023/08/15 01:01:26;;;;;;;13.25;10.55;;;;;;;19.91;nan;100851.44;5020009;28;20058;-66
2023/08/15 01:03:52;;;;;;;14.52;9.77;;;;;;;19.77;nan;100836.00;5018435;28;20124;-64
2023/08/15 01:06:17;;;;;;;13.55;10.32;;;;;;;19.84;nan;100843.72;5017897;28;20447;-64
2023/08/15 01:08:43;;;;;;;14.70;10.15;;;;;;;19.81;nan;100844.28;5017103;28;20029;-63
2023/08/15 01:11:09;;;;;;;14.75;10.07;;;;;;;19.79;nan;100830.41;5017024;28;20443;-64
2023/08/15 01:13:50;;;;;;;12.43;9.95;;;;;;;19.83;nan;100838.69;5020979;28;20029;-65
2023/08/15 01:16:23;;;;;;;14.63;9.57;;;;;;;19.80;nan;100833.84;5019458;28;20034;-64
2023/08/15 01:18:55;;;;;;;13.15;10.05;;;;;;;19.72;nan;100835.25;5015823;28;20021;-66
2023/08/15 01:21:25;;;;;;;14.07;9.63;;;;;;;19.75;nan;100834.69;5020342;28;20113;-64
2023/08/15 01:23:52;;;;;;;11.63;9.88;;;;;;;19.58;nan;100810.97;5015820;28;20631;-64
2023/08/15 01:26:17;;;;;;;12.80;10.07;;;;;;;19.72;nan;100833.38;5015673;28;20109;-64
2023/08/15 01:28:42;;;;;;;12.07;10.10;;;;;;;19.72;nan;100832.56;5015207;28;20914;-63
2023/08/15 01:31:17;;;;;;;14.45;9.77;;;;;;;19.69;nan;100831.25;5021592;28;20082;-64
2023/08/15 01:33:51;;;;;;;15.70;9.93;;;;;;;19.70;nan;100830.16;5016228;28;20037;-64
2023/08/15 01:36:31;;;;;;;14.68;9.65;;;;;;;19.66;nan;100825.66;5020911;28;20632;-64
2023/08/15 01:39:00;;;;;;;14.65;9.50;;;;;;;19.67;nan;100819.22;5026558;28;20116;-64
2023/08/15 01:41:26;;;;;;;;;;;;;;;19.67;nan;100828.03;5019912;28;20045;-63
2023/08/15 01:43:54;;;;;;;11.63;9.18;;;;;;;19.59;nan;100817.91;5019624;28;20545;-64
2023/08/15 01:46:19;;;;;;;12.65;9.35;;;;;;;19.57;nan;100812.03;5017531;28;20030;-64
2023/08/15 01:48:45;;;;;;;13.25;9.23;;;;;;;19.64;nan;100827.78;5018305;28;20091;-63
2023/08/15 01:51:11;;;;;;;12.73;9.05;;;;;;;19.63;nan;100831.50;5023229;28;20081;-63
2023/08/15 01:53:37;;;;;;;11.48;9.30;;;;;;;19.58;nan;100823.53;5015702;28;20029;-63
2023/08/15 01:56:03;;;;;;;11.07;9.20;;;;;;;19.47;nan;100815.56;5014029;28;20113;-71
2023/08/15 01:58:29;;;;;;;12.38;9.60;;;;;;;19.50;nan;100820.34;5016814;28;20149;-71
2023/08/15 02:00:54;;;;;;;12.13;9.27;;;;;;;19.57;nan;100833.41;5016949;28;20051;-70
2023/08/15 02:03:19;;;;;;;12.52;9.63;;;;;;;19.52;nan;100828.09;5016711;28;20123;-70
2023/08/15 02:05:45;;;;;;;17.23;9.82;;;;;;;19.52;nan;100833.44;5016044;28;20770;-70
2023/08/15 02:08:10;;;;;;;13.25;8.65;;;;;;;19.46;nan;100821.97;5016273;28;20047;-70
2023/08/15 02:10:35;;;;;;;11.48;9.20;;;;;;;19.41;nan;100815.84;5015033;28;20147;-70
2023/08/15 02:13:01;;;;;;;12.18;8.98;;;;;;;19.40;nan;100819.63;5016263;28;20411;-70
2023/08/15 02:15:26;;;;;;;11.27;9.10;;;;;;;19.39;nan;100815.31;5016058;28;20052;-70
2023/08/15 02:17:52;;;;;;;12.95;8.55;;;;;;;19.41;nan;100822.00;5017427;28;20033;-71
2023/08/15 02:20:17;;;;;;;12.20;8.77;;;;;;;19.41;nan;100816.66;5017308;28;20464;-70
2023/08/15 02:22:42;;;;;;;11.23;8.60;;;;;;;19.43;nan;100817.19;5018232;28;20500;-70
2023/08/15 02:25:08;;;;;;;11.98;8.68;;;;;;;19.40;nan;100816.94;5017635;28;20063;-71
2023/08/15 02:27:33;;;;;;;12.48;8.98;;;;;;;19.33;nan;100812.69;5015082;28;20503;-71
2023/08/15 02:29:59;;;;;;;12.95;8.57;;;;;;;19.34;nan;100810.81;5017413;28;20534;-71
2023/08/15 02:32:24;;;;;;;11.80;7.90;;;;;;;19.41;nan;100815.84;5003619;28;20030;-68
2023/08/15 02:34:49;;;;;;;9.73;7.57;;;;;;;19.39;nan;100821.47;5017305;28;20140;-68
2023/08/15 02:37:15;;;;;;;11.32;8.15;;;;;;;19.41;nan;100815.84;5017455;28;20033;-68
2023/08/15 02:39:41;;;;;;;12.50;8.05;;;;;;;19.44;nan;100820.66;5029575;28;20018;-75
2023/08/15 02:42:06;;;;;;;10.30;8.07;;;;;;;19.38;nan;100813.75;5014008;28;20030;-74
2023/08/15 02:44:33;;;;;;;11.68;7.95;;;;;;;19.44;nan;100826.81;5016275;28;20029;-75
2023/08/15 02:46:58;;;;;;;11.23;7.75;;;;;;;19.41;nan;100830.00;5013120;28;20481;-74
2023/08/15 02:49:23;;;;;;;10.43;7.90;;;;;;;19.35;nan;100823.09;5016991;28;20136;-74
2023/08/15 02:51:49;;;;;;;13.75;7.93;;;;;;;19.36;nan;100835.38;5015826;28;20030;-74
2023/08/15 02:54:14;;;;;;;11.18;7.47;;;;;;;19.25;nan;100829.28;5017066;28;20100;-74
2023/08/15 02:56:40;;;;;;;13.05;7.93;;;;;;;19.30;nan;100831.94;5045649;28;20068;-74
2023/08/15 02:59:05;;;;;;;10.23;7.88;;;;;;;19.34;nan;100824.94;5013990;28;20051;-74
2023/08/15 03:01:32;;;;;;;11.23;7.85;;;;;;;19.31;nan;100808.69;5014552;28;20463;-74
2023/08/15 03:03:57;;;;;;;10.80;7.85;;;;;;;19.32;nan;100803.09;5016092;28;20021;-74
2023/08/15 03:06:23;;;;;;;9.10;7.50;;;;;;;19.36;nan;100787.31;5017519;28;20025;-74
2023/08/15 03:08:48;;;;;;;14.93;7.95;;;;;;;19.42;nan;100796.06;5018815;28;20552;-74
2023/08/15 03:11:14;;;;;;;10.85;8.38;;;;;;;19.37;nan;100772.06;5013950;28;20025;-75
2023/08/15 03:13:39;;;;;;;9.48;8.30;;;;;;;19.41;nan;100767.78;5016298;28;20033;-74
2023/08/15 03:16:04;;;;;;;10.70;7.63;;;;;;;19.41;nan;100763.25;5020667;28;20099;-75
2023/08/15 03:18:30;;;;;;;11.45;7.68;;;;;;;19.23;nan;100743.31;5013566;28;20078;-74
2023/08/15 03:20:56;;;;;;;9.75;8.38;;;;;;;19.54;nan;100825.97;5013612;28;20033;-74
2023/08/15 03:23:21;;;;;;;16.52;8.48;;;;;;;19.43;nan;100833.22;5018205;28;20049;-75
2023/08/15 03:25:57;;;;;;;14.70;8.60;;;;;;;19.37;nan;100820.13;5016876;28;20037;-74
2023/08/15 03:28:22;;;;;;;9.18;7.88;;;;;;;19.32;nan;100808.44;5014211;28;20112;-72
2023/08/15 03:30:48;;;;;;;11.93;7.82;;;;;;;19.44;nan;100816.13;5012413;28;20559;-72
2023/08/15 03:33:15;;;;;;;11.32;8.23;;;;;;;19.45;nan;100831.06;5012066;28;20823;-72
2023/08/15 03:35:45;;;;;;;9.88;8.00;;;;;;;19.39;nan;100818.78;5012142;28;20025;-72
2023/08/15 03:38:10;;;;;;;11.02;8.32;;;;;;;19.44;nan;100825.97;5014877;28;20030;-73
2023/08/15 03:40:36;;;;;;;9.68;7.65;;;;;;;19.32;nan;100802.25;5014520;28;20021;-73
2023/08/15 03:43:01;;;;;;;9.77;7.68;;;;;;;19.45;nan;100817.72;5016711;28;20026;-73
2023/08/15 03:45:28;;;;;;;9.30;7.82;;;;;;;19.46;nan;100821.97;5017254;28;20029;-73
2023/08/15 03:47:54;;;;;;;11.02;7.65;;;;;;;19.51;nan;100827.31;5014424;28;20084;-73
2023/08/15 03:50:19;;;;;;;9.48;7.88;;;;;;;19.52;nan;100828.09;5013904;28;20512;-72
2023/08/15 03:52:44;;;;;;;10.75;8.13;;;;;;;19.50;nan;100816.88;5014544;28;20049;-73
2023/08/15 03:55:10;;;;;;;10.40;7.70;;;;;;;19.59;nan;100833.94;5015097;28;20034;-74
2023/08/15 03:57:35;;;;;;;13.80;7.65;;;;;;;19.56;nan;100831.81;5016735;28;20108;-74
2023/08/15 04:00:00;;;;;;;9.68;7.97;;;;;;;19.58;nan;100834.22;5012636;28;20025;-74
2023/08/15 04:02:26;;;;;;;11.93;8.30;;;;;;;19.55;nan;100835.56;5017196;28;20018;-74
2023/08/15 04:04:51;;;;;;;9.35;7.90;;;;;;;19.59;nan;100835.84;5016839;28;20718;-74
2023/08/15 04:07:16;;;;;;;11.05;7.82;;;;;;;19.52;nan;100817.41;5014776;28;20413;-74
2023/08/15 04:09:42;;;;;;;12.05;8.18;;;;;;;19.41;nan;100805.19;5015984;28;20030;-74
2023/08/15 04:12:07;;;;;;;9.73;7.95;;;;;;;19.62;nan;100835.28;5015251;28;20029;-74
2023/08/15 04:14:33;;;;;;;10.32;7.78;;;;;;;19.58;nan;100827.00;5017235;28;20026;-74
2023/08/15 04:16:58;;;;;;;12.57;8.35;;;;;;;19.63;nan;100823.50;5012811;28;20025;-74
2023/08/15 04:19:23;;;;;;;10.68;8.20;;;;;;;19.66;nan;100821.09;5016589;28;20036;-63
2023/08/15 04:21:49;;;;;;;10.18;7.63;;;;;;;19.58;nan;100816.31;5012160;28;20498;-67
2023/08/15 04:24:14;;;;;;;8.40;7.50;;;;;;;19.60;nan;100818.72;5011934;28;20196;-67
2023/08/15 04:26:40;;;;;;;10.65;7.90;;;;;;;19.64;nan;100823.22;5017351;28;20460;-64
2023/08/15 04:29:05;;;;;;;12.50;7.65;;;;;;;19.60;nan;100819.50;5014564;28;20079;-64
2023/08/15 04:31:30;;;;;;;10.65;7.93;;;;;;;19.66;nan;100822.97;5015441;28;20025;-64
2023/08/15 04:33:56;;;;;;;9.60;8.00;;;;;;;19.64;nan;100827.78;5019766;28;20033;-63
2023/08/15 04:36:21;;;;;;;11.73;8.02;;;;;;;19.63;nan;100824.28;5023596;28;20642;-66
2023/08/15 04:38:46;;;;;;;14.63;8.25;;;;;;;19.48;nan;100803.81;5017779;28;20099;-67
2023/08/15 04:41:12;;;;;;;12.93;7.82;;;;;;;19.69;nan;100839.25;5016926;28;20488;-71
2023/08/15 04:43:37;;;;;;;9.98;7.75;;;;;;;19.69;nan;100849.94;5020426;28;20037;-70
2023/08/15 04:46:03;;;;;;;12.90;8.43;;;;;;;19.73;nan;100855.56;5031826;28;20079;-70
2023/08/15 04:48:28;;;;;;;10.05;7.70;;;;;;;19.74;nan;100851.81;5015254;28;20545;-70
2023/08/15 04:50:54;;;;;;;11.88;7.35;;;;;;;19.75;nan;100856.88;5016693;28;20029;-68
2023/08/15 04:53:19;;;;;;;13.68;8.15;;;;;;;19.74;nan;100857.16;5021137;28;20055;-71
2023/08/15 04:55:44;;;;;;;10.48;7.57;;;;;;;19.69;nan;100843.81;5015524;28;20025;-71
2023/08/15 04:58:10;;;;;;;9.65;7.78;;;;;;;19.76;nan;100855.78;5017512;28;20033;-74
2023/08/15 05:00:35;;;;;;;15.20;7.88;;;;;;;19.71;nan;100847.81;5018203;28;20025;-73
2023/08/15 05:03:01;;;;;;;11.85;7.65;;;;;;;19.81;nan;100860.31;5016863;28;20029;-74
2023/08/15 05:05:26;;;;;;;13.18;8.00;;;;;;;19.75;nan;100842.69;5016767;28;20028;-74
2023/08/15 05:07:52;;;;;;;11.65;8.23;;;;;;;19.83;nan;100852.03;5016370;28;20037;-74
2023/08/15 05:10:20;;;;;;;11.40;7.78;;;;;;;19.90;nan;100855.22;5015842;28;20120;-73
2023/08/15 05:12:46;;;;;;;13.60;8.35;;;;;;;19.94;nan;100850.88;5028174;28;20382;-72
2023/08/15 05:15:11;;;;;;;17.25;8.55;;;;;;;19.91;nan;100851.44;5016613;28;20034;-72
2023/08/15 05:17:37;;;;;;;9.38;7.25;;;;;;;20.00;nan;100855.13;5017866;28;20034;-72
2023/08/15 05:20:04;;;;;;;13.57;8.02;;;;;;;19.94;nan;100849.03;5021818;28;20487;-69
2023/08/15 05:22:29;;;;;;;10.93;7.82;;;;;;;20.03;nan;100859.13;5018723;28;20022;-72
2023/08/15 05:24:55;;;;;;;14.45;7.93;;;;;;;20.10;nan;100873.00;5018263;28;20036;-72
2023/08/15 05:27:21;;;;;;;10.60;7.50;;;;;;;20.17;nan;100871.59;5016384;28;20036;-72
2023/08/15 05:29:46;;;;;;;11.57;7.25;;;;;;;20.18;nan;100857.16;5019191;28;20037;-73
2023/08/15 05:32:11;;;;;;;10.90;7.65;;;;;;;20.23;nan;100853.63;5016016;28;20033;-72
2023/08/15 05:34:37;;;;;;;11.65;7.20;;;;;;;20.30;nan;100858.69;5019158;28;20033;-73
2023/08/15 05:37:02;;;;;;;9.85;7.00;;;;;;;20.32;nan;100848.50;5021949;28;20120;-73
2023/08/15 05:39:28;;;;;;;9.63;7.60;;;;;;;20.42;nan;100861.78;5016639;28;20084;-70
2023/08/15 05:41:53;;;;;;;14.68;8.55;;;;;;;20.50;nan;100863.09;5018661;28;20034;-72
2023/08/15 05:44:18;;;;;;;11.43;7.70;;;;;;;20.54;nan;100853.41;5016198;28;20113;-72
2023/08/15 05:46:44;;;;;;;10.23;7.55;;;;;;;20.64;nan;100856.03;5018487;28;20136;-72
2023/08/15 05:49:09;;;;;;;10.75;7.05;;;;;;;20.75;nan;100862.88;5014196;28;20048;-68
2023/08/15 05:51:35;;;;;;;11.68;6.90;;;;;;;20.75;nan;100854.84;5013657;28;20392;-72
2023/08/15 05:54:00;;;;;;;8.55;6.75;;;;;;;20.91;nan;100855.53;5016330;28;20033;-72
2023/08/15 05:56:25;;;;;;;9.15;6.60;;;;;;;21.04;nan;100868.22;5015521;28;20134;-73
2023/08/15 05:58:51;;;;;;;10.25;6.95;;;;;;;21.14;nan;100858.50;5018279;28;20033;-68
2023/08/15 06:01:16;;;;;;;10.00;6.97;;;;;;;21.35;nan;100873.25;5018174;28;20061;-73
2023/08/15 06:03:42;;;;;;;12.43;6.88;;;;;;;21.44;nan;100874.25;5016914;28;20629;-73
2023/08/15 06:06:07;;;;;;;8.70;6.35;;;;;;;21.52;nan;100872.03;5015812;28;20511;-73
2023/08/15 06:08:32;;;;;;;14.70;6.40;;;;;;;21.57;nan;100871.97;5016711;28;20041;-73
2023/08/15 06:10:58;;;;;;;13.68;6.80;;;;;;;21.62;nan;100878.06;5013078;28;20049;-73
2023/08/15 06:13:23;;;;;;;10.20;6.53;;;;;;;21.64;nan;100877.78;5015078;28;20508;-73
2023/08/15 06:15:48;;;;;;;9.55;6.47;;;;;;;21.65;nan;100869.44;5016824;28;20025;-73
2023/08/15 06:18:14;;;;;;;16.60;6.65;;;;;;;21.63;nan;100862.78;5013276;28;20038;-73
2023/08/15 06:20:40;;;;;;;9.60;6.00;;;;;;;21.75;nan;100867.72;5013701;28;20388;-72
2023/08/15 06:23:05;;;;;;;9.10;6.40;;;;;;;21.88;nan;100861.63;5013730;28;20056;-72
2023/08/15 06:25:31;;;;;;;9.85;6.50;;;;;;;21.96;nan;100858.31;5014819;28;20052;-71
2023/08/15 06:27:56;;;;;;;11.00;6.68;;;;;;;21.92;nan;100838.53;5018015;28;20034;-71
2023/08/15 06:30:21;;;;;;;10.00;6.38;;;;;;;22.03;nan;100853.38;5014646;28;20017;-71
2023/08/15 06:32:47;;;;;;;7.80;5.80;;;;;;;22.14;nan;100855.91;5019228;28;20029;-66
2023/08/15 06:35:12;;;;;;;10.35;6.03;;;;;;;22.23;nan;100859.56;5015054;28;20029;-64
2023/08/15 06:37:37;;;;;;;9.48;6.38;;;;;;;22.32;nan;100859.72;5016633;28;20443;-65
2023/08/15 06:40:03;;;;;;;9.15;6.05;;;;;;;22.37;nan;100867.69;5013984;28;20033;-66
2023/08/15 06:42:29;;;;;;;12.38;7.07;;;;;;;22.33;nan;100859.41;5015478;28;20104;-66
2023/08/15 06:45:04;;;;;;;8.75;5.85;;;;;;;22.34;nan;100855.66;5016605;28;20113;-66
2023/08/15 06:47:29;;;;;;;10.13;5.78;;;;;;;22.44;nan;100865.41;5015454;28;20018;-75
2023/08/15 06:49:55;;;;;;;8.45;6.20;;;;;;;22.36;nan;100866.06;5014710;28;20060;-75
2023/08/15 06:52:20;;;;;;;8.98;6.28;;;;;;;22.38;nan;100853.16;5014418;28;20029;-75
2023/08/15 06:54:46;;;;;;;10.23;6.10;;;;;;;22.60;nan;100880.19;5016217;28;20028;-74
2023/08/15 06:57:11;;;;;;;11.77;6.43;;;;;;;22.67;nan;100885.97;5012986;28;20434;-74
2023/08/15 06:59:37;;;;;;;12.50;6.30;;;;;;;22.76;nan;100891.44;5015138;28;20034;-75
2023/08/15 07:02:02;;;;;;;8.50;5.85;;;;;;;22.87;nan;100894.78;5019714;28;20038;-75
2023/08/15 07:04:27;;;;;;;8.18;5.90;;;;;;;22.97;nan;100894.59;5014865;28;20029;-70
2023/08/15 07:06:56;;;;;;;7.00;5.50;;;;;;;23.12;nan;100885.47;5024199;28;20037;-67
2023/08/15 07:09:21;;;;;;;7.70;5.47;;;;;;;23.21;nan;100881.00;5018125;28;20026;-65
2023/08/15 07:11:47;;;;;;;10.55;6.10;;;;;;;23.36;nan;100882.59;5012863;28;20600;-66
2023/08/15 07:14:12;;;;;;;8.70;5.53;;;;;;;23.46;nan;100874.31;5015951;28;20040;-66
2023/08/15 07:16:37;;;;;;;7.57;5.28;;;;;;;23.60;nan;100873.53;5017856;28;20037;-66
2023/08/15 07:19:04;;;;;;;10.07;5.82;;;;;;;23.70;nan;100871.41;5019077;28;20030;-66
2023/08/15 07:21:29;;;;;;;8.50;5.57;;;;;;;23.86;nan;100871.13;5013579;28;20032;-66
2023/08/15 07:23:55;;;;;;;7.03;5.47;;;;;;;23.96;nan;100865.50;5015947;28;20053;-68
2023/08/15 07:26:20;;;;;;;7.43;5.70;;;;;;;24.05;nan;100861.00;5021310;28;20025;-65
2023/08/15 07:28:45;;;;;;;7.05;5.35;;;;;;;24.29;nan;100884.13;5012756;28;20076;-68
2023/08/15 07:31:11;;;;;;;9.75;4.78;;;;;;;24.37;nan;100881.53;5014435;28;20033;-67
2023/08/15 07:33:36;;;;;;;7.47;4.90;;;;;;;24.59;nan;100888.00;5014170;28;20022;-68
2023/08/15 07:36:01;;;;;;;7.43;4.70;;;;;;;24.78;nan;100894.00;5023072;28;20120;-68
2023/08/15 07:38:27;;;;;;;7.70;5.05;;;;;;;24.87;nan;100895.94;5014376;28;20382;-66
2023/08/15 07:40:52;;;;;;;9.27;4.93;;;;;;;24.88;nan;100894.81;5020485;28;20480;-68
2023/08/15 07:43:18;;;;;;;6.10;4.80;;;;;;;24.96;nan;100897.56;5015642;28;20017;-67
2023/08/15 07:45:43;;;;;;;6.47;5.05;;;;;;;25.12;nan;100892.56;5012962;28;20037;-66
2023/08/15 07:48:08;;;;;;;7.28;4.97;;;;;;;25.24;nan;100898.19;5016273;28;20139;-67
2023/08/15 07:50:34;;;;;;;15.77;6.85;;;;;;;25.39;nan;100904.28;5011899;28;20022;-66
2023/08/15 07:52:59;;;;;;;7.90;5.10;;;;;;;25.56;nan;100908.91;5015329;28;20025;-68
2023/08/15 07:55:27;;;;;;;6.38;4.45;;;;;;;25.65;nan;100891.66;5014497;28;20625;-68
2023/08/15 07:57:52;;;;;;;9.57;4.82;;;;;;;25.72;nan;100901.19;5019473;28;20025;-67
2023/08/15 08:00:18;;;;;;;7.57;4.28;;;;;;;25.77;nan;100901.03;5016598;28;20026;-68
2023/08/15 08:02:44;;;;;;;5.45;4.18;;;;;;;25.83;nan;100905.94;5017963;28;20025;-67
2023/08/15 08:05:11;;;;;;;5.65;4.32;;;;;;;25.83;nan;100905.94;5015627;28;20030;-68
2023/08/15 08:07:41;;;;;;;8.40;4.57;;;;;;;25.88;nan;100910.44;5011250;28;20040;-75
2023/08/15 08:10:07;;;;;;;7.60;4.57;;;;;;;25.89;nan;100914.72;5016151;28;20029;-75
2023/08/15 08:12:33;;;;;;;8.00;4.80;;;;;;;25.87;nan;100906.16;5021576;28;20396;-75
2023/08/15 08:14:58;;;;;;;7.63;4.13;;;;;;;26.04;nan;100919.66;5017694;28;20041;-75
2023/08/15 08:17:24;;;;;;;6.90;4.45;;;;;;;26.01;nan;100898.72;5017893;28;20080;-75
2023/08/15 08:19:49;;;;;;;8.00;4.38;;;;;;;26.12;nan;100898.38;5014802;28;20032;-76
2023/08/15 08:22:15;;;;;;;5.93;4.72;;;;;;;26.12;nan;100890.28;5014545;28;20025;-74
2023/08/15 08:24:40;;;;;;;7.38;4.78;;;;;;;26.14;nan;100880.75;5012372;28;20052;-74
2023/08/15 08:27:06;;;;;;;8.40;4.40;;;;;;;26.15;nan;100885.06;5013934;28;20040;-73
2023/08/15 08:29:31;;;;;;;5.05;4.30;;;;;;;26.19;nan;100888.69;5015180;28;20066;-75
2023/08/15 08:31:57;;;;;;;7.10;4.82;;;;;;;26.27;nan;100895.22;5016779;28;20146;-72
2023/08/15 08:34:22;;;;;;;8.43;4.70;;;;;;;26.22;nan;100898.88;5013927;28;20423;-74
2023/08/15 08:36:48;;;;;;;5.05;4.55;;;;;;;26.19;nan;100912.97;5019329;28;20060;-74
2023/08/15 08:39:13;;;;;;;6.85;4.80;;;;;;;26.11;nan;100916.50;5014116;28;20041;-74
2023/08/15 08:41:39;;;;;;;6.40;5.00;;;;;;;26.07;nan;100929.84;5013229;28;20052;-74
2023/08/15 08:44:05;;;;;;;8.20;5.88;;;;;;;26.01;nan;100941.88;5015586;28;20494;-74
2023/08/15 08:46:32;;;;;;;9.68;5.15;;;;;;;26.08;nan;100957.63;5014257;28;20025;-74
2023/08/15 08:48:58;;;;;;;10.85;5.90;;;;;;;26.07;nan;100958.72;5014672;28;20033;-74
2023/08/15 08:51:27;;;;;;;10.02;6.15;;;;;;;26.04;nan;100952.03;5014949;28;20030;-74
2023/08/15 08:53:53;;;;;;;;;;;;;;;26.08;nan;100958.41;5022593;28;20056;-70
2023/08/15 08:56:27;;;;;;;9.35;4.50;;;;;;;26.06;nan;100939.03;5042996;28;20395;-71
2023/08/15 08:59:00;;;;;;;9.57;5.40;;;;;;;25.94;nan;100911.09;5015043;28;20072;-76
2023/08/15 09:01:30;;;;;;;12.60;6.07;;;;;;;26.04;nan;100935.84;5013205;28;20033;-75
2023/08/15 09:03:56;;;;;;;7.25;4.90;;;;;;;25.97;nan;100932.81;5016817;28;20029;-75
2023/08/15 09:06:22;;;;;;;6.72;4.78;;;;;;;25.98;nan;100930.91;5014286;28;20099;-75
2023/08/15 09:08:48;;;;;;;6.97;5.20;;;;;;;25.81;nan;100897.41;5012667;28;20034;-75
2023/08/15 09:11:13;;;;;;;8.10;4.80;;;;;;;25.99;nan;100911.72;5014958;28;20082;-76
2023/08/15 09:13:49;;;;;;;6.65;4.82;;;;;;;25.99;nan;100900.91;5017335;28;20507;-75
2023/08/15 09:16:15;;;;;;;7.00;4.93;;;;;;;25.96;nan;100904.25;5010475;28;20033;-74
2023/08/15 09:18:41;;;;;;;8.80;5.80;;;;;;;25.99;nan;100895.53;5019505;28;20033;-75
2023/08/15 09:21:06;;;;;;;7.13;5.38;;;;;;;25.97;nan;100872.66;5018478;28;20647;-75
2023/08/15 09:23:32;;;;;;;7.28;5.03;;;;;;;25.80;nan;100839.13;5016890;28;20057;-74
2023/08/15 09:25:58;;;;;;;8.90;5.25;;;;;;;26.05;nan;100880.78;5017966;28;20029;-75
2023/08/15 09:28:23;;;;;;;9.98;5.20;;;;;;;26.05;nan;100871.84;5014577;28;20021;-75
2023/08/15 09:30:53;;;;;;;6.78;4.80;;;;;;;26.03;nan;100860.63;5019247;28;20531;-75
2023/08/15 09:33:19;;;;;;;11.48;5.05;;;;;;;26.08;nan;100858.53;5017446;28;20551;-71
2023/08/15 09:35:45;;;;;;;8.45;5.22;;;;;;;26.07;nan;100854.25;5021087;28;20179;-71
2023/08/15 09:38:11;;;;;;;7.90;4.90;;;;;;;26.08;nan;100845.03;5016654;28;20033;-72
2023/08/15 09:40:37;;;;;;;7.75;5.63;;;;;;;26.16;nan;100853.47;5016645;28;20111;-69
2023/08/15 09:43:03;;;;;;;6.88;4.97;;;;;;;26.25;nan;100848.84;5014117;28;20504;-73
2023/08/15 09:45:29;;;;;;;7.35;4.90;;;;;;;26.33;nan;100855.34;5017153;28;20044;-73
2023/08/15 09:47:55;;;;;;;10.10;5.38;;;;;;;26.44;nan;100851.97;5018645;28;20025;-67
2023/08/15 09:50:21;;;;;;;8.20;4.40;;;;;;;26.28;nan;100826.59;5018438;28;20124;-67
2023/08/15 09:52:47;;;;;;;5.75;5.05;;;;;;;26.52;nan;100867.38;5015993;28;20033;-67
2023/08/15 09:55:14;;;;;;;7.18;5.10;;;;;;;26.64;nan;100865.94;5016957;28;20033;-73
2023/08/15 09:57:42;;;;;;;6.68;4.95;;;;;;;26.78;nan;100865.75;5015173;28;20128;-71
2023/08/15 10:00:11;;;;;;;10.43;5.90;;;;;;;26.88;nan;100849.19;5016732;28;20026;-68
2023/08/15 10:02:43;;;;;;;6.68;4.90;;;;;;;26.97;nan;100846.44;5015414;28;20013;-67
2023/08/15 10:05:11;;;;;;;6.13;4.93;;;;;;;26.92;nan;100839.31;5022365;28;20030;-72
2023/08/15 10:07:37;;;;;;;6.13;4.60;;;;;;;27.10;nan;100848.13;5012064;28;20045;-67
2023/08/15 10:10:04;;;;;;;5.28;4.70;;;;;;;27.23;nan;100849.84;5016026;28;20030;-66
2023/08/15 10:12:31;;;;;;;7.20;4.95;;;;;;;27.17;nan;100843.78;5013292;28;20029;-65
2023/08/15 10:14:58;;;;;;;8.95;5.50;;;;;;;27.21;nan;100857.50;5014490;28;20534;-65
2023/08/15 10:17:28;;;;;;;6.38;4.85;;;;;;;27.22;nan;100850.94;5015166;28;20033;-66
2023/08/15 10:19:54;;;;;;;6.25;4.68;;;;;;;27.34;nan;100864.59;5016188;28;20033;-64
2023/08/15 10:22:19;;;;;;;5.80;4.90;;;;;;;27.31;nan;100873.34;5013387;28;20030;-64
2023/08/15 10:24:46;;;;;;;6.47;4.45;;;;;;;27.32;nan;100874.94;5019669;28;20532;-65
2023/08/15 10:27:14;;;;;;;7.75;5.78;;;;;;;27.35;nan;100879.69;5016651;28;20022;-72
2023/08/15 10:30:03;;;;;;;6.32;4.70;;;;;;;27.39;nan;100893.31;5013911;28;20025;-71
2023/08/15 10:32:33;;;;;;;7.55;5.30;;;;;;;27.39;nan;100897.94;5016309;28;20432;-66
2023/08/15 10:34:59;;;;;;;5.82;4.85;;;;;;;27.38;nan;100902.56;5018488;28;20098;-71
2023/08/15 10:37:33;;;;;;;6.90;4.43;;;;;;;27.31;nan;100892.25;5018571;28;20033;-71
2023/08/15 10:40:07;;;;;;;5.82;4.38;;;;;;;27.33;nan;100894.66;5015072;28;20387;-73
2023/08/15 10:43:07;;;;;;;8.95;4.68;;;;;;;27.32;nan;100899.28;5016420;28;20121;-73
2023/08/15 10:45:44;;;;;;;6.10;4.53;;;;;;;27.28;nan;100882.09;5025096;28;20484;-70
2023/08/15 10:48:10;;;;;;;6.45;4.75;;;;;;;27.33;nan;100900.06;5017947;28;20037;-73
2023/08/15 10:50:42;;;;;;;7.88;4.75;;;;;;;27.33;nan;100900.06;5015847;28;20017;-73
2023/08/15 10:53:07;;;;;;;8.00;4.38;;;;;;;27.36;nan;100897.47;5015097;28;20037;-73
2023/08/15 10:55:36;;;;;;;5.70;4.40;;;;;;;27.40;nan;100889.53;5015121;28;20033;-72
2023/08/15 10:58:07;;;;;;;5.35;4.47;;;;;;;27.38;nan;100888.25;5015845;28;20025;-73
2023/08/15 11:00:33;;;;;;;9.48;4.93;;;;;;;27.42;nan;100898.09;5018720;28;20037;-74
2023/08/15 11:03:00;;;;;;;5.97;5.00;;;;;;;27.40;nan;100888.72;5014381;28;20543;-73
2023/08/15 11:05:25;;;;;;;7.20;4.63;;;;;;;27.34;nan;100886.22;5016817;28;20033;-73
2023/08/15 11:07:51;;;;;;;7.15;4.65;;;;;;;27.33;nan;100881.13;5014114;28;20026;-73
2023/08/15 11:10:16;;;;;;;7.43;4.90;;;;;;;27.40;nan;100880.63;5014834;28;20036;-73
2023/08/15 11:12:49;;;;;;;5.20;4.63;;;;;;;27.40;nan;100883.31;5016928;28;20029;-76
2023/08/15 11:15:17;;;;;;;5.72;4.72;;;;;;;27.38;nan;100874.75;5015848;28;20033;-71
2023/08/15 11:17:46;;;;;;;7.32;4.72;;;;;;;27.42;nan;100890.00;5014253;28;20021;-68
2023/08/15 11:20:12;;;;;;;6.57;4.97;;;;;;;27.41;nan;100882.97;5017405;28;20071;-71
2023/08/15 11:22:38;;;;;;;5.68;4.53;;;;;;;27.49;nan;100889.47;5015415;28;20029;-69
2023/08/15 11:25:07;;;;;;;7.05;4.65;;;;;;;27.54;nan;100897.41;5011665;28;20026;-69
2023/08/15 11:27:38;;;;;;;8.90;5.28;;;;;;;27.51;nan;100906.16;5016065;28;20471;-68
2023/08/15 11:30:04;;;;;;;9.57;4.78;;;;;;;27.49;nan;100924.66;5019068;28;20034;-68
2023/08/15 11:32:29;;;;;;;7.60;4.88;;;;;;;27.55;nan;100916.00;5014845;28;20066;-68